Swift Current Airport
CYYN : now visible

Airfield :











YOU CAN JOIN US ON...

 
LOGIN :

Register | Disclaimer

   EN    FR    IT 

 









Legend :    VFR   Marginal VFR   IFR   Intensive IFR   Very Intensive IFR
Visi :
Ceiling :
>= 8 km
>= 3000ft
5 to 8 km
1000 to 3000 ft
1500m to 5 km
500 to 1000 ft
800 to 1500m
200 to 500 ft
< 800m
< 200 ft
Symbols :   Thunderstorms  Fog  Heavy snow  Heavy precipitations  Wind > 20 kt






- Airport Elevation : 2680 ft
- IATA code : YYN


CYYN - Swift Current

CURRENT METAR :
  • 081800Z AUTO 31012KT 9SM SCT004 M04/M04 A2988 RMK SLP154

EXPIRED METARs :
  • 081700Z AUTO 31010KT 7SM BKN004 M04/M04 A2986 RMK SLP147
  • 081644Z AUTO 30008KT 7SM BKN004 M04/M04 A2985 RMK SLP149
  • 081633Z AUTO 29011KT 7SM SCT004 M04/M04 A2984 RMK SLP146
  • 081600Z AUTO 30009KT 7SM OVC004 M04/M04 A2983 RMK SLP139
  • 081500Z AUTO 31007KT 7SM OVC004 M03/M04 A2980 RMK SLP128
  • 081400Z AUTO 31011G16KT 8SM OVC004 M03/M03 A2978 RMK SLP120

TAF TAF CYYN
Valid from the 08 at 18:00 until the 09 at 06:00 UTC


081740Z 0818/0906 30010KT P6SM BKN004 OVC220
BECMG 0818/0820 SCT220 RMK FCST BASED ON AUTO OBS. NXT FCST BY 090000Z
CZWG FIR / North America



MET'MAP, your aeronautical weather chart ! - Copyright ORBIFLY December 2007 - Disclaimer

ORBIFLY MET'MAP TEAM :

Programming & Development : Alexandra Zaïnal
Original concept : Baudouin d'Aumeries
Technical & hardware support : Manuel Goepfert
Assistance : Marc-Olivier Méhu




SOURCES & CREDITS :

   NOAA       Earth
Advisory